sensor_id;sensor_type;location;lat;lon;timestamp;temperature;humidity
3488;DHT22;38546;48.170;11.724;2023-06-22T00:00:03;20.80;99.90
3488;DHT22;38546;48.170;11.724;2023-06-22T00:02:59;20.80;99.90
3488;DHT22;38546;48.170;11.724;2023-06-22T00:05:49;20.80;99.90
3488;DHT22;38546;48.170;11.724;2023-06-22T00:08:38;20.80;99.90
3488;DHT22;38546;48.170;11.724;2023-06-22T00:11:27;20.80;99.90
3488;DHT22;38546;48.170;11.724;2023-06-22T00:14:16;20.70;99.90
3488;DHT22;38546;48.170;11.724;2023-06-22T00:17:06;20.50;99.90
3488;DHT22;38546;48.170;11.724;2023-06-22T00:19:55;20.50;99.90
3488;DHT22;38546;48.170;11.724;2023-06-22T00:22:47;20.40;99.90
3488;DHT22;38546;48.170;11.724;2023-06-22T00:25:38;20.60;99.90
3488;DHT22;38546;48.170;11.724;2023-06-22T00:28:30;20.40;99.90
3488;DHT22;38546;48.170;11.724;2023-06-22T00:31:20;20.40;99.90
3488;DHT22;38546;48.170;11.724;2023-06-22T00:34:09;20.30;99.90
3488;DHT22;38546;48.170;11.724;2023-06-22T00:36:58;20.30;99.90
3488;DHT22;38546;48.170;11.724;2023-06-22T00:39:48;20.30;99.90
3488;DHT22;38546;48.170;11.724;2023-06-22T00:42:38;20.40;99.90
3488;DHT22;38546;48.170;11.724;2023-06-22T00:45:28;20.40;99.90
3488;DHT22;38546;48.170;11.724;2023-06-22T00:48:18;20.30;99.90
3488;DHT22;38546;48.170;11.724;2023-06-22T00:51:07;20.30;99.90
3488;DHT22;38546;48.170;11.724;2023-06-22T00:53:56;20.30;99.90
3488;DHT22;38546;48.170;11.724;2023-06-22T00:56:46;20.30;99.90
3488;DHT22;38546;48.170;11.724;2023-06-22T00:59:35;20.30;99.90
3488;DHT22;38546;48.170;11.724;2023-06-22T01:02:24;20.30;99.90
3488;DHT22;38546;48.170;11.724;2023-06-22T01:05:14;20.30;99.90
3488;DHT22;38546;48.170;11.724;2023-06-22T01:08:38;20.30;99.90
3488;DHT22;38546;48.170;11.724;2023-06-22T01:11:39;20.30;99.90
3488;DHT22;38546;48.170;11.724;2023-06-22T01:14:56;20.40;99.90
3488;DHT22;38546;48.170;11.724;2023-06-22T01:17:50;20.40;99.90
3488;DHT22;38546;48.170;11.724;2023-06-22T01:20:41;20.30;99.90
3488;DHT22;38546;48.170;11.724;2023-06-22T01:23:56;20.20;99.90
3488;DHT22;38546;48.170;11.724;2023-06-22T01:33:37;20.20;99.90
3488;DHT22;38546;48.170;11.724;2023-06-22T01:36:29;20.10;99.90
3488;DHT22;38546;48.170;11.724;2023-06-22T01:39:19;20.10;99.90
3488;DHT22;38546;48.170;11.724;2023-06-22T01:42:10;20.10;99.90
3488;DHT22;38546;48.170;11.724;2023-06-22T01:45:00;20.00;99.90
3488;DHT22;38546;48.170;11.724;2023-06-22T01:47:50;20.00;99.90
3488;DHT22;38546;48.170;11.724;2023-06-22T01:50:40;20.00;99.90
3488;DHT22;38546;48.170;11.724;2023-06-22T01:53:30;20.00;99.90
3488;DHT22;38546;48.170;11.724;2023-06-22T01:56:19;19.90;99.90
3488;DHT22;38546;48.170;11.724;2023-06-22T01:59:22;19.90;99.90
3488;DHT22;38546;48.170;11.724;2023-06-22T02:02:17;19.90;99.90
3488;DHT22;38546;48.170;11.724;2023-06-22T02:05:09;19.80;99.90
3488;DHT22;38546;48.170;11.724;2023-06-22T02:08:20;19.80;99.90
3488;DHT22;38546;48.170;11.724;2023-06-22T02:11:12;19.70;99.90
3488;DHT22;38546;48.170;11.724;2023-06-22T02:14:05;19.70;99.90
3488;DHT22;38546;48.170;11.724;2023-06-22T02:16:55;19.60;99.90
3488;DHT22;38546;48.170;11.724;2023-06-22T02:19:48;19.50;99.90
3488;DHT22;38546;48.170;11.724;2023-06-22T02:22:37;19.50;99.90
3488;DHT22;38546;48.170;11.724;2023-06-22T02:25:26;19.40;99.90
3488;DHT22;38546;48.170;11.724;2023-06-22T02:28:16;19.40;99.90
3488;DHT22;38546;48.170;11.724;2023-06-22T02:31:05;19.40;99.90
3488;DHT22;38546;48.170;11.724;2023-06-22T02:33:55;19.30;99.90
3488;DHT22;38546;48.170;11.724;2023-06-22T02:36:46;19.30;99.90
3488;DHT22;38546;48.170;11.724;2023-06-22T02:39:39;19.30;99.90
3488;DHT22;38546;48.170;11.724;2023-06-22T02:42:29;19.30;99.90
3488;DHT22;38546;48.170;11.724;2023-06-22T02:45:18;19.30;99.90
3488;DHT22;38546;48.170;11.724;2023-06-22T02:48:08;19.30;99.90
3488;DHT22;38546;48.170;11.724;2023-06-22T02:50:59;19.30;99.90
3488;DHT22;38546;48.170;11.724;2023-06-22T02:53:48;19.30;99.90
3488;DHT22;38546;48.170;11.724;2023-06-22T02:56:46;19.20;99.90
3488;DHT22;38546;48.170;11.724;2023-06-22T02:59:37;19.20;99.90
3488;DHT22;38546;48.170;11.724;2023-06-22T03:02:30;19.20;99.90
3488;DHT22;38546;48.170;11.724;2023-06-22T03:05:19;19.20;99.90
3488;DHT22;38546;48.170;11.724;2023-06-22T03:08:09;19.10;99.90
3488;DHT22;38546;48.170;11.724;2023-06-22T03:10:58;19.10;99.90
3488;DHT22;38546;48.170;11.724;2023-06-22T03:13:47;19.00;99.90
3488;DHT22;38546;48.170;11.724;2023-06-22T03:16:36;19.00;99.90
3488;DHT22;38546;48.170;11.724;2023-06-22T03:19:25;19.00;99.90
3488;DHT22;38546;48.170;11.724;2023-06-22T03:22:15;18.80;99.90
3488;DHT22;38546;48.170;11.724;2023-06-22T03:25:04;18.90;99.90
3488;DHT22;38546;48.170;11.724;2023-06-22T03:27:59;19.00;99.90
3488;DHT22;38546;48.170;11.724;2023-06-22T03:30:49;18.90;99.90
3488;DHT22;38546;48.170;11.724;2023-06-22T03:33:38;18.90;99.90
3488;DHT22;38546;48.170;11.724;2023-06-22T03:36:27;18.90;99.90
3488;DHT22;38546;48.170;11.724;2023-06-22T03:39:16;18.80;99.90
3488;DHT22;38546;48.170;11.724;2023-06-22T03:42:06;18.70;99.90
3488;DHT22;38546;48.170;11.724;2023-06-22T03:44:55;18.70;99.90
3488;DHT22;38546;48.170;11.724;2023-06-22T03:47:45;18.70;99.90
3488;DHT22;38546;48.170;11.724;2023-06-22T03:50:35;18.70;99.90
3488;DHT22;38546;48.170;11.724;2023-06-22T03:53:24;18.70;99.90
3488;DHT22;38546;48.170;11.724;2023-06-22T03:56:13;18.70;99.90
3488;DHT22;38546;48.170;11.724;2023-06-22T03:59:08;18.70;99.90
3488;DHT22;38546;48.170;11.724;2023-06-22T04:01:58;18.70;99.90
3488;DHT22;38546;48.170;11.724;2023-06-22T04:04:48;18.60;99.90
3488;DHT22;38546;48.170;11.724;2023-06-22T04:07:37;18.60;99.90
3488;DHT22;38546;48.170;11.724;2023-06-22T04:10:27;18.60;99.90
3488;DHT22;38546;48.170;11.724;2023-06-22T04:13:16;18.80;99.90
3488;DHT22;38546;48.170;11.724;2023-06-22T04:16:05;18.70;99.90
3488;DHT22;38546;48.170;11.724;2023-06-22T04:18:54;18.80;99.90
3488;DHT22;38546;48.170;11.724;2023-06-22T04:21:44;18.80;99.90
3488;DHT22;38546;48.170;11.724;2023-06-22T04:24:33;18.90;99.90
3488;DHT22;38546;48.170;11.724;2023-06-22T04:27:23;18.90;99.90
3488;DHT22;38546;48.170;11.724;2023-06-22T04:30:13;19.00;99.90
3488;DHT22;38546;48.170;11.724;2023-06-22T04:33:05;19.00;99.90
3488;DHT22;38546;48.170;11.724;2023-06-22T04:35:54;19.10;99.90
3488;DHT22;38546;48.170;11.724;2023-06-22T04:38:45;19.10;99.90
3488;DHT22;38546;48.170;11.724;2023-06-22T04:41:39;19.00;99.90
3488;DHT22;38546;48.170;11.724;2023-06-22T04:44:32;19.10;99.90
3488;DHT22;38546;48.170;11.724;2023-06-22T04:47:21;19.20;99.90
3488;DHT22;38546;48.170;11.724;2023-06-22T04:50:13;19.20;99.90
3488;DHT22;38546;48.170;11.724;2023-06-22T04:53:03;19.20;99.90
3488;DHT22;38546;48.170;11.724;2023-06-22T04:55:54;19.20;99.90
3488;DHT22;38546;48.170;11.724;2023-06-22T04:58:43;19.40;99.90
3488;DHT22;38546;48.170;11.724;2023-06-22T05:01:32;19.60;99.90
3488;DHT22;38546;48.170;11.724;2023-06-22T05:04:25;19.60;99.90
3488;DHT22;38546;48.170;11.724;2023-06-22T05:07:14;19.70;99.90
3488;DHT22;38546;48.170;11.724;2023-06-22T05:10:05;19.80;99.90
3488;DHT22;38546;48.170;11.724;2023-06-22T05:12:55;19.80;99.90
3488;DHT22;38546;48.170;11.724;2023-06-22T05:15:44;20.00;99.90
3488;DHT22;38546;48.170;11.724;2023-06-22T05:18:36;20.20;99.90
3488;DHT22;38546;48.170;11.724;2023-06-22T05:21:26;20.30;99.90
3488;DHT22;38546;48.170;11.724;2023-06-22T05:24:16;20.40;99.90
3488;DHT22;38546;48.170;11.724;2023-06-22T05:27:05;20.40;99.90
3488;DHT22;38546;48.170;11.724;2023-06-22T05:29:55;20.40;99.90
3488;DHT22;38546;48.170;11.724;2023-06-22T05:32:44;20.40;99.90
3488;DHT22;38546;48.170;11.724;2023-06-22T05:35:33;20.50;99.90
3488;DHT22;38546;48.170;11.724;2023-06-22T05:38:22;20.60;99.90
3488;DHT22;38546;48.170;11.724;2023-06-22T05:41:11;20.70;99.90
3488;DHT22;38546;48.170;11.724;2023-06-22T05:44:00;20.90;99.90
3488;DHT22;38546;48.170;11.724;2023-06-22T05:46:49;21.00;99.90
3488;DHT22;38546;48.170;11.724;2023-06-22T05:49:38;21.20;99.90
3488;DHT22;38546;48.170;11.724;2023-06-22T05:52:27;21.30;99.90
3488;DHT22;38546;48.170;11.724;2023-06-22T05:55:16;21.40;99.90
3488;DHT22;38546;48.170;11.724;2023-06-22T05:58:07;21.50;99.90
3488;DHT22;38546;48.170;11.724;2023-06-22T06:00:57;21.80;99.90
3488;DHT22;38546;48.170;11.724;2023-06-22T06:03:46;21.90;99.90
3488;DHT22;38546;48.170;11.724;2023-06-22T06:06:35;21.90;99.90
3488;DHT22;38546;48.170;11.724;2023-06-22T06:09:26;22.00;99.90
3488;DHT22;38546;48.170;11.724;2023-06-22T06:12:14;22.20;99.90
3488;DHT22;38546;48.170;11.724;2023-06-22T06:15:04;22.40;99.90
3488;DHT22;38546;48.170;11.724;2023-06-22T06:17:54;22.60;99.90
3488;DHT22;38546;48.170;11.724;2023-06-22T06:20:43;22.80;99.90
3488;DHT22;38546;48.170;11.724;2023-06-22T06:23:32;22.90;99.90
3488;DHT22;38546;48.170;11.724;2023-06-22T06:26:21;22.90;99.90
3488;DHT22;38546;48.170;11.724;2023-06-22T06:29:18;23.00;99.90
3488;DHT22;38546;48.170;11.724;2023-06-22T06:32:07;23.30;99.90
3488;DHT22;38546;48.170;11.724;2023-06-22T06:34:57;23.40;99.90
3488;DHT22;38546;48.170;11.724;2023-06-22T06:37:48;23.60;99.90
3488;DHT22;38546;48.170;11.724;2023-06-22T06:40:38;23.70;99.90
3488;DHT22;38546;48.170;11.724;2023-06-22T06:43:27;23.90;99.90
3488;DHT22;38546;48.170;11.724;2023-06-22T06:46:16;24.00;99.90
3488;DHT22;38546;48.170;11.724;2023-06-22T06:49:07;24.20;99.90
3488;DHT22;38546;48.170;11.724;2023-06-22T06:51:56;24.40;99.90
3488;DHT22;38546;48.170;11.724;2023-06-22T06:54:45;24.60;99.90
3488;DHT22;38546;48.170;11.724;2023-06-22T06:57:34;24.70;99.90
3488;DHT22;38546;48.170;11.724;2023-06-22T07:00:24;24.70;99.90
3488;DHT22;38546;48.170;11.724;2023-06-22T07:03:13;24.90;99.90
3488;DHT22;38546;48.170;11.724;2023-06-22T07:06:02;25.00;99.90
3488;DHT22;38546;48.170;11.724;2023-06-22T07:08:51;25.20;99.90
3488;DHT22;38546;48.170;11.724;2023-06-22T07:11:40;25.40;99.90
3488;DHT22;38546;48.170;11.724;2023-06-22T07:14:29;25.50;99.90
3488;DHT22;38546;48.170;11.724;2023-06-22T07:17:20;25.60;99.90
3488;DHT22;38546;48.170;11.724;2023-06-22T07:20:09;25.70;99.90
3488;DHT22;38546;48.170;11.724;2023-06-22T07:23:00;25.70;99.90
3488;DHT22;38546;48.170;11.724;2023-06-22T07:25:50;25.70;99.90
3488;DHT22;38546;48.170;11.724;2023-06-22T07:28:39;25.90;99.90
3488;DHT22;38546;48.170;11.724;2023-06-22T07:31:29;26.10;99.90
3488;DHT22;38546;48.170;11.724;2023-06-22T07:34:18;26.20;99.90
3488;DHT22;38546;48.170;11.724;2023-06-22T07:37:08;26.20;99.90
3488;DHT22;38546;48.170;11.724;2023-06-22T07:39:57;26.30;99.90
3488;DHT22;38546;48.170;11.724;2023-06-22T07:42:47;26.40;99.90
3488;DHT22;38546;48.170;11.724;2023-06-22T07:45:40;26.50;99.90
3488;DHT22;38546;48.170;11.724;2023-06-22T07:48:30;26.50;99.90
3488;DHT22;38546;48.170;11.724;2023-06-22T07:51:19;26.70;99.90
3488;DHT22;38546;48.170;11.724;2023-06-22T07:54:09;26.80;99.90
3488;DHT22;38546;48.170;11.724;2023-06-22T07:56:58;27.00;99.90
3488;DHT22;38546;48.170;11.724;2023-06-22T07:59:47;27.00;99.90
3488;DHT22;38546;48.170;11.724;2023-06-22T08:02:37;27.00;99.90
3488;DHT22;38546;48.170;11.724;2023-06-22T08:05:26;27.20;99.90
3488;DHT22;38546;48.170;11.724;2023-06-22T08:08:16;27.40;99.90
3488;DHT22;38546;48.170;11.724;2023-06-22T08:11:06;27.30;99.90
3488;DHT22;38546;48.170;11.724;2023-06-22T08:13:55;27.20;99.90
3488;DHT22;38546;48.170;11.724;2023-06-22T08:16:47;27.30;99.90
3488;DHT22;38546;48.170;11.724;2023-06-22T08:19:37;27.30;99.90
3488;DHT22;38546;48.170;11.724;2023-06-22T08:22:26;27.40;99.90
3488;DHT22;38546;48.170;11.724;2023-06-22T08:25:16;27.30;99.90
3488;DHT22;38546;48.170;11.724;2023-06-22T08:28:05;27.60;99.90
3488;DHT22;38546;48.170;11.724;2023-06-22T08:30:54;27.80;99.90
3488;DHT22;38546;48.170;11.724;2023-06-22T08:33:45;27.90;99.90
3488;DHT22;38546;48.170;11.724;2023-06-22T08:36:35;28.10;99.90
3488;DHT22;38546;48.170;11.724;2023-06-22T08:39:30;28.60;99.90
3488;DHT22;38546;48.170;11.724;2023-06-22T08:42:19;28.50;99.90
3488;DHT22;38546;48.170;11.724;2023-06-22T08:45:10;28.60;99.90
3488;DHT22;38546;48.170;11.724;2023-06-22T08:47:59;28.70;99.90
3488;DHT22;38546;48.170;11.724;2023-06-22T08:50:49;28.90;99.90
3488;DHT22;38546;48.170;11.724;2023-06-22T08:53:38;29.10;99.90
3488;DHT22;38546;48.170;11.724;2023-06-22T08:56:27;28.90;99.90
3488;DHT22;38546;48.170;11.724;2023-06-22T08:59:16;28.80;99.90
3488;DHT22;38546;48.170;11.724;2023-06-22T09:02:06;28.60;99.90
3488;DHT22;38546;48.170;11.724;2023-06-22T09:04:55;28.80;99.90
3488;DHT22;38546;48.170;11.724;2023-06-22T09:07:44;28.70;99.90
3488;DHT22;38546;48.170;11.724;2023-06-22T09:10:33;29.10;99.90
3488;DHT22;38546;48.170;11.724;2023-06-22T09:13:23;29.10;99.90
3488;DHT22;38546;48.170;11.724;2023-06-22T09:16:12;29.10;99.90
3488;DHT22;38546;48.170;11.724;2023-06-22T09:19:01;29.30;99.90
3488;DHT22;38546;48.170;11.724;2023-06-22T09:21:51;29.50;99.90
3488;DHT22;38546;48.170;11.724;2023-06-22T09:24:41;29.80;99.90
3488;DHT22;38546;48.170;11.724;2023-06-22T09:27:30;29.90;99.90
3488;DHT22;38546;48.170;11.724;2023-06-22T09:30:19;29.80;99.90
3488;DHT22;38546;48.170;11.724;2023-06-22T09:33:08;30.00;99.90
3488;DHT22;38546;48.170;11.724;2023-06-22T09:35:57;30.00;99.90
3488;DHT22;38546;48.170;11.724;2023-06-22T09:38:48;30.20;99.90
3488;DHT22;38546;48.170;11.724;2023-06-22T09:41:38;30.20;99.90
3488;DHT22;38546;48.170;11.724;2023-06-22T09:44:27;30.40;99.90
3488;DHT22;38546;48.170;11.724;2023-06-22T09:47:16;30.40;99.90
3488;DHT22;38546;48.170;11.724;2023-06-22T09:50:06;30.60;99.90
3488;DHT22;38546;48.170;11.724;2023-06-22T09:52:56;30.80;99.90
3488;DHT22;38546;48.170;11.724;2023-06-22T09:55:45;31.00;99.90
3488;DHT22;38546;48.170;11.724;2023-06-22T09:58:35;31.30;99.90
3488;DHT22;38546;48.170;11.724;2023-06-22T10:01:24;31.30;99.90
3488;DHT22;38546;48.170;11.724;2023-06-22T10:04:13;31.40;99.90
3488;DHT22;38546;48.170;11.724;2023-06-22T10:07:03;31.40;99.90
3488;DHT22;38546;48.170;11.724;2023-06-22T10:09:52;31.60;99.90
3488;DHT22;38546;48.170;11.724;2023-06-22T10:12:45;31.80;99.90
3488;DHT22;38546;48.170;11.724;2023-06-22T10:15:35;31.70;99.90
3488;DHT22;38546;48.170;11.724;2023-06-22T10:18:27;32.00;99.90
3488;DHT22;38546;48.170;11.724;2023-06-22T10:21:22;32.30;99.90
3488;DHT22;38546;48.170;11.724;2023-06-22T10:24:12;32.20;99.90
3488;DHT22;38546;48.170;11.724;2023-06-22T10:27:01;32.50;99.90
3488;DHT22;38546;48.170;11.724;2023-06-22T10:29:51;32.90;99.90
3488;DHT22;38546;48.170;11.724;2023-06-22T10:32:42;33.20;99.90
3488;DHT22;38546;48.170;11.724;2023-06-22T10:35:32;33.50;99.70
3488;DHT22;38546;48.170;11.724;2023-06-22T10:38:21;33.60;98.00
3488;DHT22;38546;48.170;11.724;2023-06-22T10:41:10;33.80;97.80
3488;DHT22;38546;48.170;11.724;2023-06-22T10:43:59;34.00;98.60
3488;DHT22;38546;48.170;11.724;2023-06-22T10:46:49;34.30;97.60
3488;DHT22;38546;48.170;11.724;2023-06-22T10:49:39;33.80;97.30
3488;DHT22;38546;48.170;11.724;2023-06-22T10:52:28;33.90;97.50
3488;DHT22;38546;48.170;11.724;2023-06-22T10:55:18;34.00;97.80
3488;DHT22;38546;48.170;11.724;2023-06-22T10:58:07;34.10;97.40
3488;DHT22;38546;48.170;11.724;2023-06-22T11:00:56;34.30;96.80
3488;DHT22;38546;48.170;11.724;2023-06-22T11:03:45;34.40;97.60
3488;DHT22;38546;48.170;11.724;2023-06-22T11:06:35;34.60;98.00
3488;DHT22;38546;48.170;11.724;2023-06-22T11:09:24;34.30;96.30
3488;DHT22;38546;48.170;11.724;2023-06-22T11:12:13;34.70;97.10
3488;DHT22;38546;48.170;11.724;2023-06-22T11:15:03;34.40;95.90
3488;DHT22;38546;48.170;11.724;2023-06-22T11:17:53;34.20;95.60
3488;DHT22;38546;48.170;11.724;2023-06-22T11:20:42;33.90;95.90
3488;DHT22;38546;48.170;11.724;2023-06-22T11:23:32;33.80;96.20
3488;DHT22;38546;48.170;11.724;2023-06-22T11:26:21;33.00;96.20
3488;DHT22;38546;48.170;11.724;2023-06-22T11:29:11;33.00;97.20
3488;DHT22;38546;48.170;11.724;2023-06-22T11:32:00;33.20;97.50
3488;DHT22;38546;48.170;11.724;2023-06-22T11:34:49;33.40;97.10
3488;DHT22;38546;48.170;11.724;2023-06-22T11:37:38;33.60;97.10
3488;DHT22;38546;48.170;11.724;2023-06-22T11:40:28;33.90;97.10
3488;DHT22;38546;48.170;11.724;2023-06-22T11:43:17;33.40;96.40
3488;DHT22;38546;48.170;11.724;2023-06-22T11:46:06;33.80;96.40
3488;DHT22;38546;48.170;11.724;2023-06-22T11:48:56;34.10;96.50
3488;DHT22;38546;48.170;11.724;2023-06-22T11:51:45;34.30;96.00
3488;DHT22;38546;48.170;11.724;2023-06-22T11:54:35;33.90;96.10
3488;DHT22;38546;48.170;11.724;2023-06-22T11:57:24;33.60;96.00
3488;DHT22;38546;48.170;11.724;2023-06-22T12:00:14;34.00;95.40
3488;DHT22;38546;48.170;11.724;2023-06-22T12:03:06;33.90;95.10
3488;DHT22;38546;48.170;11.724;2023-06-22T12:05:56;33.80;95.30
3488;DHT22;38546;48.170;11.724;2023-06-22T12:08:45;33.20;95.80
3488;DHT22;38546;48.170;11.724;2023-06-22T12:11:34;33.70;95.70
3488;DHT22;38546;48.170;11.724;2023-06-22T12:14:23;33.60;95.50
3488;DHT22;38546;48.170;11.724;2023-06-22T12:17:13;34.00;95.00
3488;DHT22;38546;48.170;11.724;2023-06-22T12:20:03;33.40;95.20
3488;DHT22;38546;48.170;11.724;2023-06-22T12:22:54;33.80;96.20
3488;DHT22;38546;48.170;11.724;2023-06-22T12:25:45;34.00;95.10
3488;DHT22;38546;48.170;11.724;2023-06-22T12:28:35;34.20;94.80
3488;DHT22;38546;48.170;11.724;2023-06-22T12:31:24;33.90;94.60
3488;DHT22;38546;48.170;11.724;2023-06-22T12:34:13;33.50;95.10
3488;DHT22;38546;48.170;11.724;2023-06-22T12:37:03;33.40;95.40
3488;DHT22;38546;48.170;11.724;2023-06-22T12:39:54;33.50;95.10
3488;DHT22;38546;48.170;11.724;2023-06-22T12:42:44;33.00;95.00
3488;DHT22;38546;48.170;11.724;2023-06-22T12:45:34;32.90;95.40
3488;DHT22;38546;48.170;11.724;2023-06-22T12:48:26;33.40;95.60
3488;DHT22;38546;48.170;11.724;2023-06-22T12:51:22;33.70;95.20
3488;DHT22;38546;48.170;11.724;2023-06-22T12:54:12;33.60;94.60
3488;DHT22;38546;48.170;11.724;2023-06-22T12:57:01;33.40;94.50
3488;DHT22;38546;48.170;11.724;2023-06-22T12:59:51;33.50;95.20
3488;DHT22;38546;48.170;11.724;2023-06-22T13:02:41;33.70;95.10
3488;DHT22;38546;48.170;11.724;2023-06-22T13:05:31;33.60;94.20
3488;DHT22;38546;48.170;11.724;2023-06-22T13:08:23;33.10;94.90
3488;DHT22;38546;48.170;11.724;2023-06-22T13:11:12;33.40;95.40
3488;DHT22;38546;48.170;11.724;2023-06-22T13:14:02;33.60;96.10
3488;DHT22;38546;48.170;11.724;2023-06-22T13:16:51;33.80;96.20
3488;DHT22;38546;48.170;11.724;2023-06-22T13:19:41;34.00;95.50
3488;DHT22;38546;48.170;11.724;2023-06-22T13:22:33;33.80;95.70
3488;DHT22;38546;48.170;11.724;2023-06-22T13:25:28;34.00;94.60
3488;DHT22;38546;48.170;11.724;2023-06-22T13:28:18;34.10;95.10
3488;DHT22;38546;48.170;11.724;2023-06-22T13:31:09;34.10;95.10
3488;DHT22;38546;48.170;11.724;2023-06-22T13:33:58;34.50;94.30
3488;DHT22;38546;48.170;11.724;2023-06-22T13:36:47;34.40;94.20
3488;DHT22;38546;48.170;11.724;2023-06-22T13:39:36;34.30;95.10
3488;DHT22;38546;48.170;11.724;2023-06-22T13:42:26;34.20;95.50
3488;DHT22;38546;48.170;11.724;2023-06-22T13:45:15;34.00;95.90
3488;DHT22;38546;48.170;11.724;2023-06-22T13:48:06;33.90;95.80
3488;DHT22;38546;48.170;11.724;2023-06-22T13:50:55;33.70;95.40
3488;DHT22;38546;48.170;11.724;2023-06-22T13:53:44;34.40;95.20
3488;DHT22;38546;48.170;11.724;2023-06-22T13:56:33;34.50;94.70
3488;DHT22;38546;48.170;11.724;2023-06-22T13:59:22;34.30;95.40
3488;DHT22;38546;48.170;11.724;2023-06-22T14:02:12;34.60;94.80
3488;DHT22;38546;48.170;11.724;2023-06-22T14:05:02;34.20;95.40
3488;DHT22;38546;48.170;11.724;2023-06-22T14:07:51;33.50;96.10
3488;DHT22;38546;48.170;11.724;2023-06-22T14:10:41;33.90;95.50
3488;DHT22;38546;48.170;11.724;2023-06-22T14:13:30;33.90;95.40
3488;DHT22;38546;48.170;11.724;2023-06-22T14:16:19;34.00;95.80
3488;DHT22;38546;48.170;11.724;2023-06-22T14:19:08;34.00;95.80
3488;DHT22;38546;48.170;11.724;2023-06-22T14:21:57;33.60;95.40
3488;DHT22;38546;48.170;11.724;2023-06-22T14:24:47;33.50;96.10
3488;DHT22;38546;48.170;11.724;2023-06-22T14:27:37;33.50;96.30
3488;DHT22;38546;48.170;11.724;2023-06-22T14:30:27;33.00;96.40
3488;DHT22;38546;48.170;11.724;2023-06-22T14:33:16;32.80;96.50
3488;DHT22;38546;48.170;11.724;2023-06-22T14:36:05;32.50;95.90
3488;DHT22;38546;48.170;11.724;2023-06-22T14:38:55;32.90;96.60
3488;DHT22;38546;48.170;11.724;2023-06-22T14:41:44;32.50;96.40
3488;DHT22;38546;48.170;11.724;2023-06-22T14:44:33;32.50;96.70
3488;DHT22;38546;48.170;11.724;2023-06-22T14:47:23;32.50;96.50
3488;DHT22;38546;48.170;11.724;2023-06-22T14:50:12;32.80;97.10
3488;DHT22;38546;48.170;11.724;2023-06-22T14:53:02;33.40;96.10
3488;DHT22;38546;48.170;11.724;2023-06-22T14:55:51;33.10;96.10
3488;DHT22;38546;48.170;11.724;2023-06-22T14:58:42;33.50;95.80
3488;DHT22;38546;48.170;11.724;2023-06-22T15:01:34;33.10;95.60
3488;DHT22;38546;48.170;11.724;2023-06-22T15:04:23;32.90;96.20
3488;DHT22;38546;48.170;11.724;2023-06-22T15:07:12;32.90;95.90
3488;DHT22;38546;48.170;11.724;2023-06-22T15:10:01;32.70;96.00
3488;DHT22;38546;48.170;11.724;2023-06-22T15:12:51;32.50;96.10
3488;DHT22;38546;48.170;11.724;2023-06-22T15:15:39;32.80;96.30
3488;DHT22;38546;48.170;11.724;2023-06-22T15:18:29;33.00;96.30
3488;DHT22;38546;48.170;11.724;2023-06-22T15:21:18;32.80;96.40
3488;DHT22;38546;48.170;11.724;2023-06-22T15:24:07;33.30;95.80
3488;DHT22;38546;48.170;11.724;2023-06-22T15:26:57;33.20;95.90
3488;DHT22;38546;48.170;11.724;2023-06-22T15:29:46;33.00;96.30
3488;DHT22;38546;48.170;11.724;2023-06-22T15:32:35;33.40;95.80
3488;DHT22;38546;48.170;11.724;2023-06-22T15:35:24;33.40;95.60
3488;DHT22;38546;48.170;11.724;2023-06-22T15:38:13;33.60;94.80
3488;DHT22;38546;48.170;11.724;2023-06-22T15:41:02;33.70;95.00
3488;DHT22;38546;48.170;11.724;2023-06-22T15:43:52;33.40;95.10
3488;DHT22;38546;48.170;11.724;2023-06-22T15:46:40;33.00;95.00
3488;DHT22;38546;48.170;11.724;2023-06-22T15:49:30;32.60;94.70
3488;DHT22;38546;48.170;11.724;2023-06-22T15:52:18;32.50;94.80
3488;DHT22;38546;48.170;11.724;2023-06-22T15:55:08;32.50;95.20
3488;DHT22;38546;48.170;11.724;2023-06-22T15:57:58;32.50;94.80
3488;DHT22;38546;48.170;11.724;2023-06-22T16:00:47;32.70;94.90
3488;DHT22;38546;48.170;11.724;2023-06-22T16:03:37;32.50;94.40
3488;DHT22;38546;48.170;11.724;2023-06-22T16:06:27;32.60;94.50
3488;DHT22;38546;48.170;11.724;2023-06-22T16:09:16;32.20;94.70
3488;DHT22;38546;48.170;11.724;2023-06-22T16:12:06;32.40;94.70
3488;DHT22;38546;48.170;11.724;2023-06-22T16:14:57;32.50;94.80
3488;DHT22;38546;48.170;11.724;2023-06-22T16:17:46;32.60;94.30
3488;DHT22;38546;48.170;11.724;2023-06-22T16:20:35;32.70;93.80
3488;DHT22;38546;48.170;11.724;2023-06-22T16:23:24;32.30;93.40
3488;DHT22;38546;48.170;11.724;2023-06-22T16:26:13;32.50;93.80
3488;DHT22;38546;48.170;11.724;2023-06-22T16:29:02;32.70;93.40
3488;DHT22;38546;48.170;11.724;2023-06-22T16:31:51;33.10;93.40
3488;DHT22;38546;48.170;11.724;2023-06-22T16:34:40;33.20;93.20
3488;DHT22;38546;48.170;11.724;2023-06-22T16:37:29;33.10;93.10
3488;DHT22;38546;48.170;11.724;2023-06-22T16:40:18;33.20;93.50
3488;DHT22;38546;48.170;11.724;2023-06-22T16:43:09;33.40;93.00
3488;DHT22;38546;48.170;11.724;2023-06-22T16:45:58;33.20;93.00
3488;DHT22;38546;48.170;11.724;2023-06-22T16:48:51;32.50;93.30
3488;DHT22;38546;48.170;11.724;2023-06-22T16:51:40;31.90;94.50
3488;DHT22;38546;48.170;11.724;2023-06-22T16:54:29;31.70;94.90
3488;DHT22;38546;48.170;11.724;2023-06-22T16:57:20;31.70;95.20
3488;DHT22;38546;48.170;11.724;2023-06-22T17:00:10;31.80;95.70
3488;DHT22;38546;48.170;11.724;2023-06-22T17:03:03;31.70;95.30
3488;DHT22;38546;48.170;11.724;2023-06-22T17:05:56;31.70;95.20
3488;DHT22;38546;48.170;11.724;2023-06-22T17:08:47;31.50;95.40
3488;DHT22;38546;48.170;11.724;2023-06-22T17:11:36;31.40;95.40
3488;DHT22;38546;48.170;11.724;2023-06-22T17:14:26;31.30;96.10
3488;DHT22;38546;48.170;11.724;2023-06-22T17:17:16;31.10;96.40
3488;DHT22;38546;48.170;11.724;2023-06-22T17:20:07;31.00;96.80
3488;DHT22;38546;48.170;11.724;2023-06-22T17:22:57;30.90;97.60
3488;DHT22;38546;48.170;11.724;2023-06-22T17:25:46;30.70;98.00
3488;DHT22;38546;48.170;11.724;2023-06-22T17:28:49;30.40;99.00
3488;DHT22;38546;48.170;11.724;2023-06-22T17:31:42;30.10;99.90
3488;DHT22;38546;48.170;11.724;2023-06-22T17:34:35;29.80;99.90
3488;DHT22;38546;48.170;11.724;2023-06-22T17:37:24;28.90;99.90
3488;DHT22;38546;48.170;11.724;2023-06-22T17:40:17;27.20;99.90
3488;DHT22;38546;48.170;11.724;2023-06-22T17:43:07;25.90;99.90
3488;DHT22;38546;48.170;11.724;2023-06-22T17:45:59;24.90;99.90
3488;DHT22;38546;48.170;11.724;2023-06-22T17:48:48;24.00;99.90
3488;DHT22;38546;48.170;11.724;2023-06-22T17:51:41;23.30;99.90
3488;DHT22;38546;48.170;11.724;2023-06-22T17:54:31;22.90;99.90
3488;DHT22;38546;48.170;11.724;2023-06-22T17:57:20;22.70;99.90
3488;DHT22;38546;48.170;11.724;2023-06-22T18:00:10;22.60;99.90